createdAt,value
2018-01-12T00:01:54.028Z,102527.53
2018-01-12T00:04:20.347Z,102530.81
2018-01-12T00:06:47.427Z,102534.92
2018-01-12T00:09:13.732Z,102541.12
2018-01-12T00:11:40.772Z,102541.31
2018-01-12T00:14:07.072Z,102542.18
2018-01-12T00:16:33.377Z,102541.96
2018-01-12T00:18:59.680Z,102537.02
2018-01-12T00:21:25.983Z,102540.92
2018-01-12T00:26:23.016Z,102541.03
2018-01-12T00:28:49.317Z,102539.59
2018-01-12T00:31:15.634Z,102541.85
2018-01-12T00:33:41.936Z,102539.52
2018-01-12T00:36:08.245Z,102551.50
2018-01-12T00:41:32.908Z,102558.25
2018-01-12T00:43:59.239Z,102562.47
2018-01-12T00:46:25.555Z,102562.13
2018-01-12T00:48:51.888Z,102552.88
2018-01-12T00:51:18.208Z,102550.27
2018-01-12T00:53:44.529Z,102550.77
2018-01-12T00:56:11.625Z,102555.19
2018-01-12T00:58:38.152Z,102554.38
2018-01-12T01:01:04.461Z,102548.87
2018-01-12T01:03:31.506Z,102545.92
2018-01-12T01:05:58.562Z,102549.93
2018-01-12T01:08:25.633Z,102552.41
2018-01-12T01:10:51.957Z,102555.97
2018-01-12T01:13:18.270Z,102557.58
2018-01-12T01:15:44.622Z,102562.88
2018-01-12T01:18:10.891Z,102563.88
2018-01-12T01:20:37.205Z,102566.45
2018-01-12T01:23:03.509Z,102562.89
2018-01-12T01:25:29.812Z,102564.62
2018-01-12T01:27:56.124Z,102562.52
2018-01-12T01:30:22.437Z,102566.44
2018-01-12T01:32:49.507Z,102561.74
2018-01-12T01:35:15.820Z,102564.63
2018-01-12T01:37:42.148Z,102561.08
2018-01-12T01:40:08.478Z,102560.89
2018-01-12T01:42:34.783Z,102559.53
2018-01-12T01:45:01.579Z,102563.45
2018-01-12T01:47:27.893Z,102566.34
2018-01-12T01:49:54.229Z,102568.46
2018-01-12T08:08:59.024Z,102750.58
2018-01-12T08:11:26.088Z,102758.73
2018-01-12T08:13:53.135Z,102756.58
2018-01-12T08:16:20.182Z,102762.55
2018-01-12T08:18:47.224Z,102756.70
2018-01-12T08:21:13.728Z,102763.24
2018-01-12T08:23:40.107Z,102763.00
2018-01-12T08:26:07.231Z,102762.66
2018-01-12T08:28:33.535Z,102757.16
2018-01-12T08:30:59.846Z,102758.92
2018-01-12T08:33:27.156Z,102762.55
2018-01-12T08:35:53.457Z,102766.11
2018-01-12T08:38:19.792Z,102770.69
2018-01-12T08:40:46.097Z,102768.03
2018-01-12T08:43:13.153Z,102773.17
2018-01-12T08:45:40.211Z,102779.42
2018-01-12T08:48:07.254Z,102774.23
2018-01-12T08:50:33.571Z,102779.66
2018-01-12T08:52:59.882Z,102779.27
2018-01-12T08:55:26.195Z,102785.83
2018-01-12T08:57:52.580Z,102793.81
2018-01-12T09:00:18.852Z,102790.97
2018-01-12T09:02:45.897Z,102791.61
2018-01-12T09:05:12.960Z,102794.92
2018-01-12T09:07:40.016Z,102797.97
2018-01-12T09:10:06.347Z,102798.36
2018-01-12T09:12:33.413Z,102798.58
2018-01-12T09:15:14.128Z,102809.13
2018-01-12T09:17:48.395Z,102805.06
2018-01-12T09:20:16.797Z,102809.11
2018-01-12T09:25:52.905Z,102805.32
2018-01-12T09:28:29.307Z,102729.95
2018-01-12T09:30:55.668Z,102814.52
2018-01-12T09:33:22.086Z,102812.78
2018-01-12T09:35:49.154Z,102815.92
2018-01-12T09:38:21.532Z,102812.55
2018-01-12T09:40:47.871Z,102819.06
2018-01-12T09:43:14.182Z,102815.42
2018-01-12T09:45:41.244Z,102819.84
2018-01-12T09:51:05.180Z,102824.81
2018-01-12T09:53:31.539Z,102830.61
2018-01-12T09:55:57.876Z,102829.55
2018-01-12T09:58:24.204Z,102824.31
2018-01-12T10:01:05.476Z,102819.20
2018-01-12T10:03:31.862Z,102819.87
2018-01-12T10:05:58.218Z,102820.81
2018-01-12T10:08:25.384Z,102819.41
2018-01-12T10:10:51.743Z,102817.97
2018-01-12T10:13:18.114Z,102823.59
2018-01-12T10:15:45.163Z,102813.13
2018-01-12T10:21:32.031Z,102816.88
2018-01-12T10:23:58.373Z,102812.46
2018-01-12T10:26:24.760Z,102816.41
2018-01-12T10:29:03.323Z,102815.17
2018-01-12T10:34:44.169Z,102810.75
2018-01-12T10:37:10.570Z,102807.13
2018-01-12T10:39:56.129Z,102803.34
2018-01-12T10:42:22.432Z,102802.01
2018-01-12T10:44:48.746Z,102814.77
2018-01-12T10:47:26.037Z,102817.63
2018-01-12T10:50:16.559Z,102812.65
2018-01-12T10:52:47.875Z,102812.04
2018-01-12T10:55:14.189Z,102814.91
2018-01-12T10:57:40.524Z,102807.66
2018-01-12T11:00:06.889Z,102807.81
2018-01-12T11:02:33.240Z,102810.16
2018-01-12T11:04:59.552Z,102810.57
2018-01-12T11:07:25.858Z,102801.27
2018-01-12T11:09:52.911Z,102805.01
2018-01-12T11:12:19.964Z,102802.02
2018-01-12T11:14:47.025Z,102805.80
2018-01-12T11:17:14.070Z,102791.61
2018-01-12T11:19:41.123Z,102794.22
2018-01-12T11:22:08.167Z,102789.45
2018-01-12T11:24:35.220Z,102796.54
2018-01-12T11:27:02.281Z,102788.28
2018-01-12T11:29:29.344Z,102787.31
2018-01-12T11:31:55.687Z,102787.94
2018-01-12T11:34:21.991Z,102788.84
2018-01-12T11:36:48.308Z,102784.14
2018-01-12T11:39:14.606Z,102787.09
2018-01-12T11:41:40.900Z,102783.20
2018-01-12T11:44:07.224Z,102784.73
2018-01-12T11:46:34.324Z,102781.64
2018-01-12T11:49:00.632Z,102774.32
2018-01-12T11:51:27.673Z,102778.21
2018-01-12T11:53:53.980Z,102773.84
2018-01-12T11:56:20.336Z,102776.45
2018-01-12T11:58:46.669Z,102772.13
2018-01-12T12:01:13.019Z,102775.46
2018-01-12T12:03:39.369Z,102776.34
2018-01-12T12:06:06.416Z,102766.66
2018-01-12T12:08:33.463Z,102767.84
2018-01-12T12:10:59.893Z,102762.42
2018-01-12T12:13:30.069Z,102765.66
2018-01-12T12:15:56.422Z,102749.92
2018-01-12T12:18:22.750Z,102750.56
2018-01-12T12:20:49.051Z,102755.23
2018-01-12T12:23:16.099Z,102756.00
2018-01-12T12:25:43.136Z,102749.09
2018-01-12T12:28:09.451Z,102749.78
2018-01-12T12:30:35.760Z,102747.50
2018-01-12T12:33:02.081Z,102746.89
2018-01-12T12:35:28.432Z,102746.07
2018-01-12T12:37:54.735Z,102741.47
2018-01-12T12:40:21.768Z,102753.62
2018-01-12T12:42:48.823Z,102746.08
2018-01-12T12:45:15.152Z,102750.58
2018-01-12T12:47:41.493Z,102755.86
2018-01-12T12:50:07.814Z,102750.97
2018-01-12T12:52:34.167Z,102747.81
2018-01-12T12:55:00.463Z,102743.84
2018-01-12T12:57:26.796Z,102743.00
2018-01-12T12:59:53.128Z,102742.01
2018-01-12T13:02:19.431Z,102737.24
2018-01-12T13:04:46.471Z,102743.39
2018-01-12T13:07:13.516Z,102740.23
2018-01-12T13:09:59.116Z,102740.13
2018-01-12T13:34:15.673Z,102743.39
2018-01-12T13:36:41.999Z,102747.90
2018-01-12T13:39:08.331Z,102743.23
2018-01-12T13:41:34.725Z,102739.88
2018-01-12T13:44:01.108Z,102743.47
2018-01-12T13:46:27.480Z,102756.41
2018-01-12T13:48:53.860Z,102754.76
2018-01-12T13:51:20.960Z,102748.43
2018-01-12T13:53:47.336Z,102750.11
2018-01-12T13:56:13.729Z,102750.06
2018-01-12T13:58:40.100Z,102750.60
2018-01-12T14:01:06.492Z,102759.05
2018-01-12T14:03:32.906Z,102768.05
2018-01-12T14:06:00.030Z,102764.48
2018-01-12T14:08:26.410Z,102757.88
2018-01-12T14:10:52.765Z,102764.77
2018-01-12T14:13:19.857Z,102765.55
2018-01-12T14:15:46.245Z,102767.92
2018-01-12T14:18:13.609Z,102770.08
2018-01-12T14:20:40.005Z,102776.79
2018-01-12T14:23:07.342Z,102776.89
2018-01-12T14:25:33.763Z,102771.02
2018-01-12T14:28:00.131Z,102775.86
2018-01-12T14:30:26.490Z,102782.42
2018-01-12T14:32:53.629Z,102785.64
2018-01-12T14:35:19.980Z,102787.31
2018-01-12T14:37:47.106Z,102789.36
2018-01-12T14:40:13.498Z,102786.10
2018-01-12T14:42:39.848Z,102784.36
2018-01-12T14:45:06.248Z,102786.26
2018-01-12T14:47:33.353Z,102784.14
2018-01-12T14:49:59.703Z,102786.63
2018-01-12T14:52:26.075Z,102779.39
2018-01-12T14:54:53.157Z,102769.60
2018-01-12T14:57:19.523Z,102768.50
2018-01-12T14:59:45.885Z,102765.50
2018-01-12T15:02:12.237Z,102764.17
2018-01-12T15:04:39.341Z,102771.39
2018-01-12T15:07:05.780Z,102773.53
2018-01-12T15:09:32.900Z,102773.76
2018-01-12T15:11:59.284Z,102778.16
2018-01-12T15:14:25.662Z,102775.87
2018-01-12T15:16:52.780Z,102765.66
2018-01-12T15:19:19.139Z,102769.27
2018-01-12T15:21:45.525Z,102775.44
2018-01-12T15:24:11.893Z,102776.98
2018-01-12T15:26:38.323Z,102772.23
2018-01-12T15:29:04.737Z,102779.77
2018-01-12T15:31:31.110Z,102775.37
2018-01-12T15:33:57.502Z,102771.41
2018-01-12T15:36:23.879Z,102774.52
2018-01-12T15:38:50.289Z,102772.02
2018-01-12T15:41:16.657Z,102767.18
2018-01-12T15:43:43.084Z,102771.27
2018-01-12T15:46:09.460Z,102770.09
2018-01-12T15:48:35.887Z,102761.95
2018-01-12T15:51:02.290Z,102762.08
2018-01-12T15:53:29.423Z,102764.27
2018-01-12T15:55:55.800Z,102768.36
2018-01-12T15:58:22.179Z,102761.48
2018-01-12T16:00:48.585Z,102760.85
2018-01-12T16:03:14.942Z,102762.30
2018-01-12T16:05:41.294Z,102758.48
2018-01-12T16:08:07.657Z,102763.30
2018-01-12T16:10:34.035Z,102756.98
2018-01-12T16:13:00.392Z,102754.38
2018-01-12T16:15:26.851Z,102746.48
2018-01-12T16:17:53.190Z,102747.12
2018-01-12T16:20:19.619Z,102749.01
2018-01-12T16:22:46.042Z,102752.06
2018-01-12T16:25:12.411Z,102752.50
2018-01-12T16:27:38.787Z,102752.38
2018-01-12T16:30:05.154Z,102758.39
2018-01-12T16:32:31.533Z,102754.67
2018-01-12T16:34:58.648Z,102750.37
2018-01-12T16:37:25.048Z,102752.27
2018-01-12T16:39:51.463Z,102752.82
2018-01-12T16:42:18.626Z,102755.22
2018-01-12T16:44:45.748Z,102758.27
2018-01-12T16:47:12.132Z,102754.53
2018-01-12T16:49:38.565Z,102760.59
2018-01-12T16:52:04.939Z,102756.40
2018-01-12T16:54:31.308Z,102758.08
2018-01-12T16:56:57.724Z,102753.07
2018-01-12T16:59:24.129Z,102761.02
2018-01-12T17:01:50.552Z,102758.13
2018-01-12T17:04:17.694Z,102766.00
2018-01-12T17:06:44.110Z,102764.33
2018-01-12T17:09:10.502Z,102765.55
2018-01-12T17:11:36.898Z,102761.05
2018-01-12T17:14:03.282Z,102756.61
2018-01-12T17:16:29.670Z,102762.60
2018-01-12T17:18:56.073Z,102759.55
2018-01-12T17:21:22.453Z,102758.20
2018-01-12T17:23:48.822Z,102766.13
2018-01-12T17:26:15.174Z,102758.30
2018-01-12T17:28:41.578Z,102768.91
2018-01-12T17:31:08.700Z,102765.09
2018-01-12T17:33:35.138Z,102763.81
2018-01-12T17:36:01.514Z,102767.60
2018-01-12T17:38:28.632Z,102765.02
2018-01-12T17:40:54.995Z,102757.23
2018-01-12T17:43:22.172Z,102763.84
2018-01-12T17:45:48.620Z,102761.89
2018-01-12T17:48:15.043Z,102755.78
2018-01-12T17:50:42.248Z,102760.12
2018-01-12T17:53:08.610Z,102757.23
2018-01-12T17:55:36.074Z,102762.07
2018-01-12T17:58:02.521Z,102763.13
2018-01-12T18:00:29.734Z,102765.86
2018-01-12T18:02:56.131Z,102768.41
2018-01-12T18:05:23.327Z,102767.62
2018-01-12T18:07:49.746Z,102771.39
2018-01-12T18:10:16.174Z,102772.17
2018-01-12T18:12:42.547Z,102771.47
2018-01-12T18:15:08.987Z,102779.06
2018-01-12T18:17:35.375Z,102782.30
2018-01-12T18:20:01.821Z,102774.80
2018-01-12T18:22:28.235Z,102768.02
2018-01-12T18:24:55.377Z,102769.63
2018-01-12T18:27:21.777Z,102777.91
2018-01-12T18:29:48.922Z,102767.97
2018-01-12T18:32:15.322Z,102778.33
2018-01-12T18:34:41.763Z,102785.08
2018-01-12T18:37:08.152Z,102776.72
2018-01-12T18:39:34.569Z,102781.73
2018-01-12T18:42:00.989Z,102775.52
2018-01-12T18:44:28.124Z,102789.56
2018-01-12T18:46:55.419Z,102789.83
2018-01-12T18:49:21.821Z,102793.18
2018-01-12T18:51:48.217Z,102799.64
2018-01-12T18:54:14.588Z,102793.88
2018-01-12T18:56:40.974Z,102797.75
2018-01-12T18:59:07.399Z,102798.56
2018-01-12T19:01:34.601Z,102798.05
2018-01-12T19:04:01.000Z,102801.42
2018-01-12T19:06:27.429Z,102802.16
2018-01-12T19:08:53.821Z,102798.69
2018-01-12T19:11:20.218Z,102797.45
2018-01-12T19:13:46.592Z,102810.22
2018-01-12T19:16:13.002Z,102806.34
2018-01-12T19:18:39.407Z,102805.63
2018-01-12T19:21:06.520Z,102805.96
2018-01-12T19:23:32.980Z,102799.45
2018-01-12T19:25:59.445Z,102794.35
2018-01-12T19:28:25.857Z,102793.97
2018-01-12T19:30:52.308Z,102805.06
2018-01-12T19:33:18.713Z,102801.06
2018-01-12T19:35:45.154Z,102794.97
2018-01-12T19:38:11.586Z,102810.40
2018-01-12T19:40:38.002Z,102800.69
2018-01-12T19:43:04.448Z,102800.73
2018-01-12T19:45:31.615Z,102809.63
2018-01-12T19:47:58.082Z,102801.18
2018-01-12T19:50:24.528Z,102800.22
2018-01-12T19:52:51.774Z,102805.55
2018-01-12T19:55:18.214Z,102804.95
2018-01-12T19:57:44.632Z,102807.09
2018-01-12T20:00:11.100Z,102806.98
2018-01-12T20:02:37.600Z,102811.20
2018-01-12T20:05:04.031Z,102807.19
2018-01-12T20:07:30.652Z,102808.83
2018-01-12T20:09:57.301Z,102808.19
2018-01-12T20:12:24.020Z,102810.30
2018-01-12T20:14:50.706Z,102812.97
2018-01-12T20:17:17.200Z,102815.25
2018-01-12T20:19:43.837Z,102807.52
2018-01-12T20:22:10.264Z,102807.75
2018-01-12T20:24:36.965Z,102807.07
2018-01-12T20:27:03.768Z,102808.08
2018-01-12T20:29:30.251Z,102810.13
2018-01-12T20:31:56.656Z,102814.23
2018-01-12T20:34:23.100Z,102812.84
2018-01-12T20:36:50.527Z,102813.30
2018-01-12T20:39:18.083Z,102815.13
2018-01-12T20:41:45.332Z,102815.98
2018-01-12T20:44:11.754Z,102814.56
2018-01-12T20:46:38.144Z,102821.23
2018-01-12T20:49:04.620Z,102812.23
2018-01-12T20:51:31.769Z,102812.80
2018-01-12T20:53:58.412Z,102817.18
2018-01-12T20:56:24.804Z,102809.63
2018-01-12T20:58:51.207Z,102812.06
2018-01-12T21:01:17.614Z,102808.80
2018-01-12T21:03:44.764Z,102812.02
2018-01-12T21:06:11.926Z,102807.80
2018-01-12T21:08:39.025Z,102814.14
2018-01-12T21:11:06.135Z,102809.25
2018-01-12T21:13:33.266Z,102811.30
2018-01-12T21:15:59.686Z,102811.84
2018-01-12T21:18:26.068Z,102810.40
2018-01-12T21:20:52.431Z,102806.86
2018-01-12T21:23:18.786Z,102801.50
2018-01-12T21:25:45.241Z,102798.77
2018-01-12T21:37:51.670Z,102797.41
2018-01-12T21:40:18.055Z,102784.06
2018-01-12T21:42:44.403Z,102787.72
2018-01-12T21:45:10.767Z,102790.22
2018-01-12T21:47:37.908Z,102778.53
2018-01-12T21:50:04.317Z,102783.12
2018-01-12T21:52:30.717Z,102785.00
2018-01-12T21:54:57.104Z,102780.91
2018-01-12T21:57:23.495Z,102779.73
2018-01-12T21:59:49.848Z,102784.05
2018-01-12T22:02:16.269Z,102780.82
2018-01-12T22:04:42.622Z,102783.19
2018-01-12T22:07:09.018Z,102779.55
2018-01-12T22:09:36.136Z,102783.27
2018-01-12T22:12:02.509Z,102780.65
2018-01-12T22:14:29.596Z,102775.17
2018-01-12T22:16:55.956Z,102777.50
2018-01-12T22:19:22.321Z,102781.02
2018-01-12T22:21:49.429Z,102785.51
2018-01-12T22:24:15.822Z,102764.19
2018-01-12T22:26:43.254Z,102779.18
2018-01-12T22:29:09.615Z,102777.80
2018-01-12T22:31:36.746Z,102780.81
2018-01-12T22:34:03.112Z,102780.62
2018-01-12T22:36:30.194Z,102783.98
2018-01-12T22:38:56.599Z,102779.52
2018-01-12T22:41:22.980Z,102779.56
2018-01-12T22:43:49.416Z,102777.45
2018-01-12T22:46:15.770Z,102779.02
2018-01-12T22:48:42.204Z,102776.66
2018-01-12T22:51:08.584Z,102774.84
2018-01-12T22:53:34.914Z,102772.68
2018-01-12T22:56:01.303Z,102766.94
2018-01-12T22:58:27.688Z,102766.92
2018-01-12T23:51:36.411Z,102746.87
2018-01-12T23:54:02.713Z,102744.52
2018-01-12T23:56:29.172Z,102745.53
2018-01-12T23:58:56.212Z,102740.94
